Terminal Aerodrome Forecast
Issued by NWS

Home | Current Version | Previous Version | Text Only | Print | Product List | Glossary On
Versions: 1 2 3 4 5 6 7 8 9 10 11 12 13 14 15 16 17 18 19 20 21 22 23 24 25 26 27 28 29 30 31 32 33 34 35 36
000
FTUS45 KBOI 281525 AAB
TAFTWF
TAF AMD
KTWF 281525Z 2815/2912 24018G28KT P6SM VCSH SCT030 OVC070
      TEMPO 2815/2818 4SM -SHSN BR BKN025
     FM290000 25012KT P6SM BKN030
     FM290900 23008KT P6SM VCSH BKN025=

USA.gov is the U.S. government's official web portal to all federal, state and local government web resources and services.